| time (UTC) | temp F | wind direction | speed knots | gust knots | rain 1hr in | rain 24hr in | rain mn in | humidity % | barometer mb |
| 20260510043703 | 56 | 0 | 0.0 | 0.0 | 0.00 | 0.00 | 0.00 | 100 | 987.9 |
| 20260510042705 | 56 | 0 | 0.0 | 0.0 | 0.00 | 0.00 | 0.00 | 100 | 987.9 |
| 20260510041703 | 56 | 0 | 0.0 | 0.0 | 0.00 | 0.00 | 0.00 | 100 | 988.0 |
| 20260510040705 | 56 | 0 | 0.0 | 0.0 | 0.00 | 0.00 | 0.00 | 100 | 987.9 |
| 20260510035704 | 57 | 0 | 0.0 | 0.0 | 0.00 | 0.00 | 0.00 | 100 | 987.8 |
| 20260510034704 | 58 | 270 | 0.0 | 0.0 | 0.00 | 0.00 | 0.00 | 100 | 987.9 |
| 20260510033705 | 57 | 0 | 0.0 | 0.0 | 0.00 | 0.00 | 0.00 | 100 | 987.9 |
| 20260510032705 | 58 | 0 | 0.0 | 0.0 | 0.00 | 0.00 | 0.00 | 100 | 987.8 |
| 20260510031703 | 58 | 0 | 0.0 | 0.0 | 0.00 | 0.00 | 0.00 | 100 | 987.6 |
| 20260510030705 | 58 | 0 | 0.0 | 0.0 | 0.00 | 0.00 | 0.00 | 100 | 987.5 |
| 20260510025704 | 59 | 0 | 0.0 | 0.0 | 0.00 | 0.00 | 0.00 | 100 | 987.5 |
| 20260510024702 | 59 | 0 | 0.0 | 0.0 | 0.00 | 0.00 | 0.00 | 100 | 987.4 |
| 20260510023705 | 59 | 0 | 0.0 | 0.0 | 0.00 | 0.00 | 0.00 | 100 | 987.3 |
| 20260510022702 | 59 | 0 | 0.0 | 0.0 | 0.00 | 0.00 | 0.00 | 100 | 987.2 |
| 20260510020703 | 61 | 0 | 0.0 | 0.0 | 0.00 | 0.00 | 0.00 | 100 | 986.8 |
| 20260510015705 | 61 | 0 | 0.0 | 0.0 | 0.00 | 0.00 | 0.00 | 100 | 986.6 |
| 20260510014705 | 63 | 0 | 0.0 | 0.0 | 0.00 | 0.00 | 0.00 | 100 | 986.5 |
| 20260510013703 | 63 | 0 | 0.0 | 0.0 | 0.00 | 0.00 | 0.00 | 100 | 986.3 |
| 20260510011709 | 64 | 0 | 0.0 | 0.0 | 0.00 | 0.00 | 0.00 | 100 | 986.0 |
| 20260510010705 | 65 | 0 | 0.0 | 0.0 | 0.00 | 0.00 | 0.00 | 100 | 985.9 |
| 20260510005703 | 65 | 0 | 0.0 | 0.0 | 0.00 | 0.00 | 0.00 | 100 | 985.6 |
| 20260510004715 | 66 | 0 | 0.0 | 0.0 | 0.00 | 0.00 | 0.00 | 100 | 985.4 |
| 20260510003704 | 66 | 45 | 0.0 | 0.0 | 0.00 | 0.00 | 0.00 | 100 | 985.3 |
| 20260510002706 | 67 | 0 | 0.0 | 0.0 | 0.00 | 0.00 | 0.00 | 100 | 985.2 |
| 20260510001705 | 67 | 0 | 0.0 | 0.0 | 0.00 | 0.00 | 0.00 | 100 | 985.1 |
| 20260510000710 | 68 | 0 | 0.0 | 0.0 | 0.00 | 0.00 | 0.00 | 100 | 985.0 |
| 20260509235727 | 68 | 0 | 0.0 | 0.0 | 0.00 | 0.00 | 0.00 | 100 | 984.9 |
| 20260509234705 | 69 | 0 | 0.0 | 0.0 | 0.00 | 0.00 | 0.00 | 100 | 984.8 |
| 20260509233704 | 70 | 0 | 0.0 | 0.0 | 0.00 | 0.00 | 0.00 | 100 | 984.8 |
| 20260509232704 | 70 | 0 | 0.0 | 0.0 | 0.00 | 0.00 | 0.00 | 100 | 984.7 |
| 20260509231704 | 71 | 0 | 0.0 | 0.0 | 0.00 | 0.00 | 0.00 | 100 | 984.6 |
| 20260509230704 | 71 | 0 | 0.0 | 0.0 | 0.00 | 0.00 | 0.00 | 100 | 984.6 |
| 20260509225706 | 71 | 45 | 0.0 | 0.0 | 0.00 | 0.00 | 0.00 | 100 | 984.6 |
| 20260509224704 | 72 | 90 | 0.0 | 0.0 | 0.00 | 0.00 | 0.00 | 100 | 984.6 |
| 20260509223705 | 72 | 180 | 0.0 | 0.0 | 0.00 | 0.00 | 0.00 | 100 | 984.7 |
| 20260509222707 | 73 | 0 | 0.0 | 0.0 | 0.00 | 0.00 | 0.00 | 96 | 984.6 |
| 20260509221704 | 73 | 42 | 0.9 | 0.9 | 0.00 | 0.00 | 0.00 | 94 | 984.6 |
| 20260509220704 | 73 | 0 | 0.0 | 0.0 | 0.00 | 0.00 | 0.00 | 100 | 984.6 |
| 20260509215713 | 73 | 135 | 0.9 | 0.9 | 0.00 | 0.00 | 0.00 | 90 | 984.7 |
| 20260509214701 | 74 | 225 | 0.0 | 0.0 | 0.00 | 0.00 | 0.00 | 95 | 984.6 |
| 20260509213704 | 74 | 135 | 0.0 | 0.0 | 0.00 | 0.00 | 0.00 | 100 | 984.5 |
| 20260509212704 | 74 | 135 | 0.0 | 0.0 | 0.00 | 0.00 | 0.00 | 91 | 984.5 |
| 20260509211702 | 73 | 0 | 0.0 | 0.0 | 0.00 | 0.00 | 0.00 | 97 | 984.4 |
| 20260509210704 | 74 | 0 | 0.0 | 0.0 | 0.00 | 0.00 | 0.00 | 94 | 984.4 |
| 20260509205704 | 75 | 176 | 0.9 | 0.9 | 0.00 | 0.00 | 0.00 | 81 | 984.4 |
| 20260509204704 | 76 | 170 | 0.9 | 0.9 | 0.00 | 0.00 | 0.00 | 73 | 984.1 |
| 20260509203704 | 76 | 175 | 0.9 | 0.9 | 0.00 | 0.00 | 0.00 | 72 | 984.0 |
| 20260509202704 | 77 | 122 | 0.0 | 0.9 | 0.00 | 0.00 | 0.00 | 64 | 984.0 |
| 20260509201706 | 76 | 135 | 0.9 | 0.9 | 0.00 | 0.00 | 0.00 | 74 | 984.1 |
| 20260509200705 | 74 | 135 | 0.9 | 0.9 | 0.00 | 0.00 | 0.00 | 79 | 984.2 |
| 20260509195705 | 77 | 117 | 0.9 | 0.9 | 0.00 | 0.00 | 0.00 | 67 | 984.2 |
| 20260509194705 | 76 | 336 | 0.9 | 1.7 | 0.00 | 0.00 | 0.00 | 78 | 984.4 |
| 20260509193704 | 77 | 180 | 0.9 | 0.9 | 0.00 | 0.00 | 0.00 | 75 | 984.5 |
| 20260509192704 | 78 | 52 | 0.9 | 0.9 | 0.00 | 0.00 | 0.00 | 70 | 984.5 |
| 20260509191703 | 77 | 180 | 0.9 | 0.9 | 0.00 | 0.00 | 0.00 | 72 | 984.6 |
| 20260509190705 | 76 | 17 | 0.0 | 0.9 | 0.00 | 0.00 | 0.00 | 77 | 984.8 |
| 20260509184704 | 75 | 45 | 1.7 | 1.7 | 0.00 | 0.00 | 0.00 | 73 | 985.0 |
| 20260509183705 | 76 | 135 | 0.0 | 0.9 | 0.00 | 0.00 | 0.00 | 76 | 985.1 |
| 20260509182707 | 75 | 146 | 0.0 | 0.9 | 0.00 | 0.00 | 0.00 | 84 | 985.3 |
| 20260509180704 | 73 | 129 | 0.9 | 0.9 | 0.00 | 0.00 | 0.00 | 93 | 985.9 |
| 20260509175704 | 72 | 62 | 0.9 | 0.9 | 0.00 | 0.00 | 0.00 | 91 | 986.0 |
| 20260509173704 | 73 | 54 | 0.9 | 1.7 | 0.00 | 0.00 | 0.00 | 93 | 986.2 |
| 20260509172704 | 71 | 135 | 0.9 | 0.9 | 0.00 | 0.00 | 0.00 | 100 | 986.7 |
| 20260509171705 | 69 | 64 | 0.9 | 0.9 | 0.00 | 0.00 | 0.00 | 100 | 986.7 |
| 20260509170705 | 68 | 180 | 0.0 | 0.0 | 0.00 | 0.00 | 0.00 | 100 | 986.8 |
| 20260509165703 | 68 | 90 | 0.0 | 0.0 | 0.00 | 0.00 | 0.00 | 100 | 986.6 |
| 20260509163703 | 67 | 135 | 0.0 | 0.0 | 0.00 | 0.00 | 0.00 | 100 | 986.8 |
| 20260509161703 | 69 | 50 | 0.9 | 0.9 | 0.00 | 0.00 | 0.00 | 100 | 986.6 |
| 20260509160702 | 67 | 90 | 0.0 | 0.0 | 0.00 | 0.00 | 0.00 | 100 | 986.8 |
| 20260509155704 | 66 | 45 | 0.9 | 0.9 | 0.00 | 0.00 | 0.00 | 100 | 986.7 |
| 20260509154704 | 66 | 135 | 0.0 | 0.0 | 0.00 | 0.00 | 0.00 | 100 | 987.0 |
| 20260509153703 | 66 | 189 | 0.9 | 0.9 | 0.00 | 0.00 | 0.00 | 100 | 987.0 |
| 20260509152709 | 66 | 135 | 0.0 | 0.9 | 0.00 | 0.00 | 0.00 | 100 | 987.0 |
| 20260509151703 | 67 | 165 | 0.9 | 0.9 | 0.00 | 0.00 | 0.00 | 100 | 987.0 |
| 20260509150704 | 65 | 90 | 0.0 | 0.0 | 0.00 | 0.00 | 0.00 | 100 | 987.3 |
| 20260509145704 | 64 | 90 | 0.0 | 0.0 | 0.00 | 0.00 | 0.00 | 100 | 987.3 |
| 20260509143705 | 64 | 45 | 1.7 | 1.7 | 0.00 | 0.00 | 0.00 | 100 | 987.2 |
| 20260509142704 | 62 | 135 | 0.0 | 0.0 | 0.00 | 0.00 | 0.00 | 100 | 987.2 |
| 20260509141704 | 62 | 72 | 0.0 | 0.0 | 0.00 | 0.00 | 0.00 | 100 | 987.3 |
| 20260509140704 | 61 | 117 | 0.0 | 0.0 | 0.00 | 0.00 | 0.00 | 100 | 987.4 |
| 20260509134710 | 60 | 0 | 0.0 | 0.0 | 0.00 | 0.00 | 0.00 | 100 | 987.8 |
| 20260509133703 | 59 | 0 | 0.0 | 0.0 | 0.00 | 0.00 | 0.00 | 100 | 987.7 |
| 20260509132704 | 59 | 90 | 0.0 | 0.0 | 0.00 | 0.00 | 0.00 | 100 | 987.8 |
| 20260509131705 | 59 | 135 | 0.0 | 0.0 | 0.00 | 0.00 | 0.00 | 100 | 988.0 |
| 20260509130702 | 58 | 0 | 0.0 | 0.0 | 0.00 | 0.00 | 0.00 | 100 | 988.0 |
| 20260509125705 | 58 | 0 | 0.0 | 0.0 | 0.00 | 0.00 | 0.00 | 100 | 988.1 |
| 20260509123706 | 58 | 0 | 0.0 | 0.0 | 0.00 | 0.00 | 0.00 | 100 | 988.1 |
| 20260509122705 | 57 | 0 | 0.0 | 0.0 | 0.00 | 0.00 | 0.00 | 100 | 988.2 |
| 20260509121705 | 57 | 0 | 0.0 | 0.0 | 0.00 | 0.00 | 0.00 | 100 | 988.2 |
| 20260509115704 | 56 | 0 | 0.0 | 0.0 | 0.00 | 0.00 | 0.00 | 100 | 988.1 |
| 20260509114703 | 56 | 0 | 0.0 | 0.0 | 0.00 | 0.00 | 0.00 | 100 | 988.1 |
| 20260509113703 | 55 | 90 | 0.0 | 0.0 | 0.00 | 0.00 | 0.00 | 100 | 988.1 |
| 20260509112705 | 55 | 0 | 0.0 | 0.0 | 0.00 | 0.00 | 0.00 | 100 | 988.1 |
| 20260509111711 | 54 | 0 | 0.0 | 0.0 | 0.00 | 0.00 | 0.00 | 100 | 988.2 |
| 20260509110703 | 53 | 0 | 0.0 | 0.0 | 0.00 | 0.00 | 0.00 | 100 | 988.1 |
| 20260509105702 | 53 | 0 | 0.0 | 0.0 | 0.00 | 0.00 | 0.00 | 100 | 988.0 |
| 20260509104704 | 53 | 0 | 0.0 | 0.0 | 0.00 | 0.00 | 0.00 | 100 | 987.9 |
| 20260509103704 | 52 | 0 | 0.0 | 0.0 | 0.00 | 0.00 | 0.00 | 100 | 988.1 |
| 20260509102727 | 52 | 0 | 0.0 | 0.0 | 0.00 | 0.00 | 0.00 | 100 | 988.1 |
| 20260509101705 | 52 | 51 | 0.0 | 0.9 | 0.00 | 0.00 | 0.00 | 100 | 988.0 |
| 20260509100705 | 52 | 0 | 0.0 | 0.0 | 0.00 | 0.00 | 0.00 | 100 | 988.0 |
| 20260509095708 | 52 | 0 | 0.0 | 0.0 | 0.00 | 0.00 | 0.00 | 100 | 987.9 |
| 20260509094703 | 52 | 0 | 0.0 | 0.0 | 0.00 | 0.00 | 0.00 | 100 | 987.9 |
| 20260509093705 | 52 | 0 | 0.0 | 0.0 | 0.00 | 0.00 | 0.00 | 100 | 988.0 |
| 20260509090703 | 52 | 135 | 0.0 | 0.0 | 0.00 | 0.00 | 0.00 | 100 | 988.1 |
| 20260509085705 | 53 | 0 | 0.0 | 0.0 | 0.00 | 0.00 | 0.00 | 100 | 988.1 |
| 20260509084704 | 53 | 0 | 0.0 | 0.0 | 0.00 | 0.00 | 0.00 | 100 | 988.2 |
| 20260509083704 | 53 | 0 | 0.0 | 0.0 | 0.00 | 0.00 | 0.00 | 100 | 988.2 |
| 20260509082708 | 53 | 0 | 0.0 | 0.0 | 0.00 | 0.00 | 0.00 | 100 | 988.2 |
| 20260509080703 | 52 | 0 | 0.0 | 0.0 | 0.00 | 0.00 | 0.00 | 100 | 988.3 |
| 20260509075702 | 52 | 0 | 0.0 | 0.0 | 0.00 | 0.00 | 0.00 | 100 | 988.4 |
| 20260509074709 | 53 | 0 | 0.0 | 0.0 | 0.00 | 0.00 | 0.00 | 100 | 988.4 |
| 20260509073708 | 53 | 90 | 0.0 | 0.0 | 0.00 | 0.00 | 0.00 | 100 | 988.4 |
| 20260509071704 | 52 | 0 | 0.0 | 0.0 | 0.00 | 0.00 | 0.00 | 100 | 988.6 |
| 20260509070704 | 52 | 0 | 0.0 | 0.0 | 0.00 | 0.00 | 0.00 | 100 | 988.5 |
| 20260509065703 | 53 | 0 | 0.0 | 0.0 | 0.00 | 0.00 | 0.00 | 100 | 988.9 |
| 20260509064703 | 53 | 0 | 0.0 | 0.0 | 0.00 | 0.00 | 0.00 | 100 | 989.0 |
| 20260509063704 | 53 | 0 | 0.0 | 0.0 | 0.00 | 0.00 | 0.00 | 100 | 988.9 |
| 20260509061720 | 53 | 0 | 0.0 | 0.0 | 0.00 | 0.00 | 0.00 | 100 | 989.0 |
| 20260509060718 | 54 | 135 | 0.0 | 0.0 | 0.00 | 0.00 | 0.00 | 100 | 989.1 |
| 20260509055703 | 53 | 0 | 0.0 | 0.0 | 0.00 | 0.00 | 0.00 | 100 | 989.3 |
| 20260509054705 | 53 | 0 | 0.0 | 0.0 | 0.00 | 0.00 | 0.00 | 100 | 989.3 |
| 20260509053702 | 54 | 0 | 0.0 | 0.0 | 0.00 | 0.00 | 0.00 | 100 | 989.3 |
| 20260509052705 | 54 | 0 | 0.0 | 0.0 | 0.00 | 0.00 | 0.00 | 100 | 989.1 |
| 20260509051703 | 55 | 0 | 0.0 | 0.0 | 0.00 | 0.00 | 0.00 | 100 | 989.1 |
| 20260509050702 | 56 | 0 | 0.0 | 0.0 | 0.00 | 0.00 | 0.00 | 100 | 989.1 |
| 20260509045703 | 56 | 0 | 0.0 | 0.0 | 0.00 | 0.00 | 0.00 | 100 | 989.0 |
| 20260509044703 | 57 | 0 | 0.0 | 0.0 | 0.00 | 0.00 | 0.00 | 100 | 989.0 |